Time;durP1;ratioP1;P1;durP2;ratioP2;P2;SDS_P1;SDS_P2;PMS_P1;PMS_P2;Temp;Humidity;BMP_temperature;BMP_pressure;BME280_temperature;BME280_humidity;BME280_pressure;Samples;Min_cycle;Max_cycle;Signal;HPM_P1;HPM_P2
2020/12/25 00:00:24;;;;;;;6.47;0.60;;;5.00;99.90;;;;;;4993337;28;20057;-77
2020/12/25 00:02:50;;;;;;;4.00;0.40;;;4.90;99.90;;;;;;4993669;28;20499;-77
2020/12/25 00:05:16;;;;;;;3.20;0.60;;;4.90;99.90;;;;;;4993127;28;20033;-77
2020/12/25 00:07:41;;;;;;;6.10;1.23;;;4.80;99.90;;;;;;4991960;28;20026;-77
2020/12/25 00:10:07;;;;;;;1.20;0.30;;;4.80;99.90;;;;;;4993871;28;20785;-77
2020/12/25 00:12:32;;;;;;;4.05;0.38;;;4.70;99.90;;;;;;4994956;28;20083;-77
2020/12/25 00:14:58;;;;;;;1.77;0.55;;;4.70;99.90;;;;;;4990811;28;20126;-76
2020/12/25 00:17:24;;;;;;;2.45;0.60;;;4.80;99.90;;;;;;4993716;28;20475;-77
2020/12/25 00:19:49;;;;;;;5.28;0.47;;;4.70;99.90;;;;;;4991405;28;20052;-77
2020/12/25 00:22:15;;;;;;;9.13;0.95;;;4.70;99.90;;;;;;4991759;28;20459;-77
2020/12/25 00:24:40;;;;;;;3.72;0.65;;;4.80;99.90;;;;;;4991959;28;20046;-77
2020/12/25 00:27:06;;;;;;;3.28;0.45;;;4.80;99.90;;;;;;4987240;28;20031;-76
2020/12/25 00:29:32;;;;;;;4.18;0.40;;;4.70;99.90;;;;;;4994586;28;20034;-77
2020/12/25 00:31:58;;;;;;;4.68;0.50;;;4.80;99.90;;;;;;4992739;28;20041;-76
2020/12/25 00:34:24;;;;;;;1.98;0.55;;;4.80;99.90;;;;;;4986907;28;20038;-77
2020/12/25 00:36:49;;;;;;;5.25;0.73;;;4.90;99.90;;;;;;4990207;28;20050;-77
2020/12/25 00:39:17;;;;;;;1.98;1.00;;;4.90;99.90;;;;;;4991874;28;20092;-78
2020/12/25 00:41:45;;;;;;;1.90;0.47;;;4.80;99.90;;;;;;4993490;28;20030;-77
2020/12/25 00:44:11;;;;;;;3.75;1.40;;;4.80;99.90;;;;;;4989357;28;20027;-77
2020/12/25 00:46:37;;;;;;;1.13;0.57;;;4.80;99.90;;;;;;4992066;28;20070;-77
2020/12/25 00:49:03;;;;;;;2.05;0.70;;;4.70;99.90;;;;;;4988033;28;20033;-76
2020/12/25 00:51:29;;;;;;;3.70;0.77;;;4.70;99.90;;;;;;4993255;28;20383;-77
2020/12/25 00:53:54;;;;;;;4.15;0.68;;;4.70;99.90;;;;;;4993912;28;20022;-79
2020/12/25 00:56:20;;;;;;;4.88;1.33;;;4.70;99.90;;;;;;4990851;28;20136;-77
2020/12/25 00:58:45;;;;;;;3.13;0.50;;;4.60;99.90;;;;;;4992383;28;20034;-76
2020/12/25 01:01:13;;;;;;;6.85;0.90;;;4.60;99.90;;;;;;4986830;28;20022;-78
2020/12/25 01:03:40;;;;;;;0.93;0.52;;;4.60;99.90;;;;;;5002545;28;20057;-77
2020/12/25 01:06:13;;;;;;;8.50;0.85;;;4.60;99.90;;;;;;5007854;28;20125;-77
2020/12/25 01:08:39;;;;;;;6.95;0.52;;;4.50;99.90;;;;;;5012237;28;20030;-78
2020/12/25 01:11:06;;;;;;;1.70;0.50;;;4.60;99.90;;;;;;5004734;28;20475;-78
2020/12/25 01:13:33;;;;;;;4.63;0.77;;;4.50;99.90;;;;;;4997268;28;20030;-78
2020/12/25 01:16:03;;;;;;;4.75;0.68;;;4.50;99.90;;;;;;4997583;28;20033;-78
2020/12/25 01:18:29;;;;;;;4.03;0.65;;;4.50;99.90;;;;;;4994131;28;20064;-77
2020/12/25 01:20:55;;;;;;;8.45;1.00;;;4.50;99.90;;;;;;4992962;28;20026;-78
2020/12/25 01:23:20;;;;;;;4.82;1.13;;;4.50;99.90;;;;;;4993529;28;20467;-79
2020/12/25 01:25:46;;;;;;;2.80;0.95;;;4.50;99.90;;;;;;4993492;28;20026;-78
2020/12/25 01:28:11;;;;;;;4.88;0.60;;;4.40;99.90;;;;;;4992441;28;20056;-78
2020/12/25 01:30:37;;;;;;;8.40;1.50;;;4.50;99.90;;;;;;4993684;28;20387;-79
2020/12/25 01:33:03;;;;;;;3.17;0.80;;;4.50;99.90;;;;;;4991152;28;20022;-79
2020/12/25 01:35:28;;;;;;;5.20;0.88;;;4.50;99.90;;;;;;4989448;28;20029;-78
2020/12/25 01:37:54;;;;;;;2.08;0.60;;;4.40;99.90;;;;;;4990794;28;20478;-78
2020/12/25 01:40:19;;;;;;;3.60;1.05;;;4.50;99.90;;;;;;4984710;28;20038;-78
2020/12/25 01:42:45;;;;;;;3.47;0.80;;;4.50;99.90;;;;;;4990485;28;20030;-79
2020/12/25 01:45:11;;;;;;;8.10;0.95;;;4.40;99.90;;;;;;4991624;28;20494;-78
2020/12/25 01:47:37;;;;;;;2.30;0.75;;;4.50;99.90;;;;;;4990181;28;20379;-79
2020/12/25 01:50:03;;;;;;;2.90;1.40;;;4.60;99.90;;;;;;4992569;28;20093;-78
2020/12/25 01:52:30;;;;;;;2.95;0.45;;;4.60;99.90;;;;;;4990006;28;20121;-78
2020/12/25 01:54:56;;;;;;;1.52;0.50;;;4.70;99.90;;;;;;4991352;28;20359;-79
2020/12/25 01:57:23;;;;;;;2.25;0.75;;;4.80;99.90;;;;;;4991570;28;20030;-78
2020/12/25 01:59:51;;;;;;;2.47;0.50;;;4.90;99.90;;;;;;5005930;28;20035;-78
2020/12/25 02:02:17;;;;;;;1.10;0.43;;;5.00;99.90;;;;;;4989492;28;20029;-79
2020/12/25 02:04:43;;;;;;;4.65;0.52;;;5.00;99.90;;;;;;4990396;28;20058;-78
2020/12/25 02:07:09;;;;;;;4.35;0.47;;;5.10;99.90;;;;;;4991287;28;20105;-78
2020/12/25 02:09:34;;;;;;;7.32;0.60;;;5.10;99.90;;;;;;4991173;28;20018;-78
2020/12/25 02:12:00;;;;;;;3.17;0.47;;;5.20;99.90;;;;;;4989994;28;20064;-79
2020/12/25 02:14:25;;;;;;;2.10;0.25;;;5.10;99.90;;;;;;4990896;28;20359;-78
2020/12/25 02:16:51;;;;;;;5.28;0.40;;;5.10;99.90;;;;;;4990918;28;20026;-78
2020/12/25 02:19:17;;;;;;;6.07;0.60;;;5.00;99.90;;;;;;4989255;28;20129;-78
2020/12/25 02:21:42;;;;;;;1.85;0.80;;;5.10;99.90;;;;;;4992411;28;20023;-78
2020/12/25 02:24:08;;;;;;;1.55;0.15;;;5.00;99.90;;;;;;4990893;28;20030;-78
2020/12/25 02:26:35;;;;;;;5.60;0.60;;;5.00;99.90;;;;;;4990357;28;20026;-78
2020/12/25 02:29:01;;;;;;;4.70;0.50;;;5.00;99.90;;;;;;4992506;28;20041;-77
2020/12/25 02:31:26;;;;;;;0.57;0.57;;;4.90;99.90;;;;;;4992100;28;20026;-77
2020/12/25 02:33:52;;;;;;;1.67;0.50;;;4.90;99.90;;;;;;4997671;28;20022;-77
2020/12/25 02:36:17;;;;;;;1.92;0.80;;;5.00;99.90;;;;;;4998665;28;20030;-77
2020/12/25 02:38:43;;;;;;;2.17;0.60;;;5.00;99.90;;;;;;5006323;28;20521;-78
2020/12/25 02:41:09;;;;;;;6.03;0.57;;;5.00;99.90;;;;;;5009923;28;20082;-78
2020/12/25 02:43:34;;;;;;;2.28;0.60;;;4.90;99.90;;;;;;5013669;28;20125;-78
2020/12/25 02:46:00;;;;;;;3.70;0.75;;;4.90;99.90;;;;;;5009011;28;20085;-78
2020/12/25 02:48:25;;;;;;;2.22;0.85;;;4.80;99.90;;;;;;5003735;28;20030;-78
2020/12/25 02:50:51;;;;;;;4.72;0.50;;;4.80;99.90;;;;;;4999226;28;20037;-77
2020/12/25 02:53:16;;;;;;;4.40;0.68;;;4.70;99.90;;;;;;4998139;28;20026;-77
2020/12/25 02:55:42;;;;;;;1.45;0.38;;;4.70;99.90;;;;;;4990059;28;20395;-78
2020/12/25 02:58:08;;;;;;;2.10;0.43;;;4.60;99.90;;;;;;4992977;28;21450;-78
2020/12/25 03:00:33;;;;;;;7.78;0.50;;;4.60;99.90;;;;;;4992445;28;20022;-78
2020/12/25 03:02:59;;;;;;;1.00;0.30;;;4.50;99.90;;;;;;4988585;28;20018;-77
2020/12/25 03:05:24;;;;;;;3.92;0.73;;;4.50;99.90;;;;;;4987786;28;20106;-78
2020/12/25 03:07:50;;;;;;;4.00;0.47;;;4.50;99.90;;;;;;4991743;28;20031;-78
2020/12/25 03:10:15;;;;;;;3.63;0.98;;;4.40;99.90;;;;;;4990169;28;20495;-77
2020/12/25 03:12:41;;;;;;;0.43;0.40;;;4.40;99.90;;;;;;4992525;28;20041;-78
2020/12/25 03:15:06;;;;;;;1.42;0.52;;;4.40;99.90;;;;;;4986994;28;20049;-78
2020/12/25 03:17:32;;;;;;;4.38;0.52;;;4.30;99.90;;;;;;4991438;28;20026;-78
2020/12/25 03:19:58;;;;;;;4.03;0.63;;;4.30;99.90;;;;;;4989591;28;20545;-78
2020/12/25 03:22:23;;;;;;;4.05;0.50;;;4.20;99.90;;;;;;4989269;28;20037;-78
2020/12/25 03:24:49;;;;;;;7.43;0.47;;;4.20;99.90;;;;;;4990779;28;20026;-78
2020/12/25 03:27:14;;;;;;;3.15;0.40;;;4.20;99.90;;;;;;4990767;28;20034;-77
2020/12/25 03:29:40;;;;;;;2.08;0.38;;;4.10;99.90;;;;;;4990265;28;20385;-77
2020/12/25 03:32:05;;;;;;;4.93;0.32;;;4.20;99.90;;;;;;4990232;28;20022;-77
2020/12/25 03:34:31;;;;;;;1.42;0.47;;;4.20;99.90;;;;;;4991027;28;20026;-78
2020/12/25 03:36:57;;;;;;;5.00;0.68;;;4.20;99.90;;;;;;4992003;28;20031;-78
2020/12/25 03:39:23;;;;;;;5.07;0.70;;;4.20;99.90;;;;;;4994532;28;20026;-77
2020/12/25 03:41:49;;;;;;;1.63;0.60;;;4.20;99.90;;;;;;4992897;28;20033;-77
2020/12/25 03:44:14;;;;;;;5.40;0.73;;;4.10;99.90;;;;;;4994093;28;20033;-78
2020/12/25 03:46:40;;;;;;;3.72;0.75;;;4.10;99.90;;;;;;4993281;28;20026;-78
2020/12/25 03:49:07;;;;;;;5.00;0.95;;;4.10;99.90;;;;;;4992936;28;20501;-78
2020/12/25 03:51:32;;;;;;;4.47;1.00;;;4.10;99.90;;;;;;4992531;28;20112;-78
2020/12/25 03:53:58;;;;;;;1.60;0.60;;;4.10;99.90;;;;;;4992870;28;20065;-78
2020/12/25 03:56:25;;;;;;;1.17;0.55;;;4.00;99.90;;;;;;4994638;28;20029;-78
2020/12/25 03:58:50;;;;;;;3.05;0.70;;;4.00;99.90;;;;;;4994994;28;20498;-78
2020/12/25 04:01:16;;;;;;;4.78;1.23;;;3.90;99.90;;;;;;4990754;28;20038;-78
2020/12/25 04:03:42;;;;;;;11.60;0.80;;;3.90;99.90;;;;;;4999153;28;20463;-78
2020/12/25 04:06:08;;;;;;;1.42;0.32;;;3.90;99.90;;;;;;5005210;28;20058;-79
2020/12/25 04:08:33;;;;;;;1.98;0.77;;;4.00;99.90;;;;;;5008640;28;20403;-78
2020/12/25 04:10:59;;;;;;;2.13;1.30;;;4.00;99.90;;;;;;5014205;28;20025;-79
2020/12/25 04:13:24;;;;;;;5.55;0.85;;;4.00;99.90;;;;;;5015803;28;20086;-79
2020/12/25 04:15:50;;;;;;;1.80;0.50;;;4.00;99.90;;;;;;5015103;28;20073;-79
2020/12/25 04:18:15;;;;;;;5.60;0.95;;;4.00;99.90;;;;;;5011428;28;20537;-77
2020/12/25 04:20:41;;;;;;;7.75;1.52;;;4.00;99.90;;;;;;5001845;28;20026;-78
2020/12/25 04:23:07;;;;;;;8.45;1.60;;;4.00;99.90;;;;;;5001522;28;20030;-78
2020/12/25 04:25:32;;;;;;;2.22;0.47;;;4.00;99.90;;;;;;4996445;28;20494;-78
2020/12/25 04:27:58;;;;;;;5.10;0.80;;;3.90;99.90;;;;;;4990048;28;20486;-78
2020/12/25 04:30:23;;;;;;;2.10;0.70;;;3.90;99.90;;;;;;4990946;28;20113;-78
2020/12/25 04:32:49;;;;;;;6.60;1.40;;;3.90;99.90;;;;;;4993315;28;20034;-78
2020/12/25 04:35:15;;;;;;;3.95;0.57;;;3.90;99.90;;;;;;4993506;28;20422;-78
2020/12/25 04:37:40;;;;;;;4.05;1.10;;;3.90;99.90;;;;;;4992368;28;20022;-78
2020/12/25 04:40:06;;;;;;;8.32;1.08;;;3.90;99.90;;;;;;4991195;28;20018;-78
2020/12/25 04:42:40;;;;;;;1.45;0.60;;;3.90;99.90;;;;;;4991220;28;20453;-78
2020/12/25 04:45:05;;;;;;;4.15;0.82;;;3.90;99.90;;;;;;4990735;28;20026;-78
2020/12/25 04:47:34;;;;;;;3.83;0.63;;;3.90;99.90;;;;;;4990954;28;20085;-78
2020/12/25 04:50:04;;;;;;;3.10;1.45;;;3.90;99.90;;;;;;4994768;28;20450;-78
2020/12/25 04:52:29;;;;;;;3.95;0.68;;;3.90;99.90;;;;;;4989177;28;20065;-78
2020/12/25 04:54:55;;;;;;;4.97;1.50;;;3.90;99.90;;;;;;4993193;28;20435;-77
2020/12/25 04:57:20;;;;;;;3.72;0.98;;;3.90;99.90;;;;;;4993155;28;20027;-78
2020/12/25 04:59:46;;;;;;;7.40;0.90;;;3.80;99.90;;;;;;4990173;28;20018;-78
2020/12/25 05:02:12;;;;;;;3.88;0.43;;;3.90;99.90;;;;;;4990452;28;20544;-78
2020/12/25 05:04:37;;;;;;;4.68;1.15;;;3.90;99.90;;;;;;4987742;28;20034;-78
2020/12/25 05:07:04;;;;;;;9.05;2.20;;;4.00;99.90;;;;;;4987907;28;20038;-78
2020/12/25 05:09:29;;;;;;;3.22;0.80;;;4.10;99.90;;;;;;4990198;28;20047;-78
2020/12/25 05:11:57;;;;;;;18.00;1.40;;;4.10;99.90;;;;;;4993604;28;20031;-78
2020/12/25 05:14:28;;;;;;;3.10;1.17;;;4.20;99.90;;;;;;4990713;28;20027;-78
2020/12/25 05:16:55;;;;;;;8.02;0.75;;;4.20;99.90;;;;;;4989274;28;20387;-78
2020/12/25 05:19:30;;;;;;;12.37;2.20;;;4.20;99.90;;;;;;4991859;28;20035;-78
2020/12/25 05:21:58;;;;;;;1.95;0.93;;;4.30;99.90;;;;;;4989395;28;20058;-77
2020/12/25 05:24:24;;;;;;;9.15;1.58;;;4.20;99.90;;;;;;4990136;28;20068;-78
2020/12/25 05:26:53;;;;;;;5.82;1.48;;;4.30;99.90;;;;;;4989757;28;20070;-77
2020/12/25 05:29:25;;;;;;;7.15;1.30;;;4.30;99.90;;;;;;4989191;28;20069;-78
2020/12/25 05:31:52;;;;;;;9.82;0.90;;;4.30;99.90;;;;;;4992973;28;20072;-78
2020/12/25 05:34:18;;;;;;;3.45;1.00;;;4.30;99.90;;;;;;5017881;28;20034;-78
2020/12/25 05:36:50;;;;;;;6.25;2.08;;;4.30;99.90;;;;;;5006489;28;20026;-78
2020/12/25 05:39:25;;;;;;;7.35;0.60;;;4.30;99.90;;;;;;5008591;28;20083;-78
2020/12/25 05:41:55;;;;;;;5.32;1.35;;;4.30;99.90;;;;;;5012672;28;20014;-78
2020/12/25 05:44:21;;;;;;;6.05;1.33;;;4.30;99.90;;;;;;5012678;28;20021;-78
2020/12/25 05:46:48;;;;;;;9.70;0.55;;;4.30;99.90;;;;;;5008317;28;20415;-78
2020/12/25 05:49:13;;;;;;;8.55;0.75;;;4.20;99.90;;;;;;4998872;28;20098;-77
2020/12/25 05:51:51;;;;;;;3.13;0.70;;;4.20;99.90;;;;;;4996674;28;20061;-78
2020/12/25 05:54:22;;;;;;;9.23;1.38;;;4.20;99.90;;;;;;4992222;28;20050;-78
2020/12/25 05:56:58;;;;;;;14.25;0.98;;;4.10;99.90;;;;;;4990661;28;20022;-78
2020/12/25 05:59:28;;;;;;;10.50;0.63;;;4.10;99.90;;;;;;4991995;28;20031;-78
2020/12/25 06:01:58;;;;;;;4.72;0.75;;;4.10;99.90;;;;;;4990282;28;20022;-78
2020/12/25 06:04:29;;;;;;;8.57;0.93;;;4.10;99.90;;;;;;4984508;28;20030;-78
2020/12/25 06:06:55;;;;;;;3.70;1.23;;;4.10;99.90;;;;;;4990900;28;20034;-77
2020/12/25 06:09:32;;;;;;;3.38;1.20;;;4.00;99.90;;;;;;4986696;28;20041;-77
2020/12/25 06:11:58;;;;;;;7.82;1.00;;;4.00;99.90;;;;;;4991876;28;20022;-78
2020/12/25 06:14:24;;;;;;;4.82;0.52;;;4.00;99.90;;;;;;4988839;28;20518;-78
2020/12/25 06:16:58;;;;;;;2.63;0.50;;;4.00;99.90;;;;;;4989685;28;20027;-77
2020/12/25 06:19:30;;;;;;;3.85;0.70;;;4.00;99.90;;;;;;4989441;28;20065;-78
2020/12/25 06:22:04;;;;;;;6.68;0.47;;;4.10;99.90;;;;;;4990745;28;20072;-77
2020/12/25 06:24:35;;;;;;;6.15;1.55;;;4.10;99.90;;;;;;4986931;28;20061;-77
2020/12/25 06:27:01;;;;;;;7.00;0.90;;;4.20;99.90;;;;;;4991332;28;20041;-78
2020/12/25 06:29:28;;;;;;;5.85;0.80;;;4.20;99.90;;;;;;4989653;28;20036;-78
2020/12/25 06:31:56;;;;;;;7.72;0.82;;;4.20;99.90;;;;;;4991078;28;20458;-78
2020/12/25 06:34:22;;;;;;;8.25;0.80;;;4.20;99.90;;;;;;4986508;28;20081;-77
2020/12/25 06:36:48;;;;;;;4.10;0.80;;;4.30;99.90;;;;;;4987196;28;20030;-78
2020/12/25 06:39:16;;;;;;;6.50;1.15;;;4.30;99.90;;;;;;4990015;28;20026;-78
2020/12/25 06:41:42;;;;;;;7.13;0.85;;;4.40;99.90;;;;;;4990624;28;20019;-78
2020/12/25 06:44:15;;;;;;;5.95;0.80;;;4.40;99.90;;;;;;4989862;28;20030;-78
2020/12/25 06:46:49;;;;;;;12.73;2.55;;;4.40;99.90;;;;;;4991405;28;20039;-78
2020/12/25 06:49:19;;;;;;;10.35;1.00;;;4.40;99.90;;;;;;4990215;28;20029;-78
2020/12/25 06:51:47;;;;;;;4.28;1.05;;;4.30;99.90;;;;;;4990223;28;20026;-78
2020/12/25 06:54:15;;;;;;;;;;;4.30;99.90;;;;;;4991260;28;20034;-78
2020/12/25 06:56:41;;;;;;;4.10;0.90;;;4.20;99.90;;;;;;4993167;28;19914;-78
2020/12/25 06:59:14;;;;;;;5.22;0.63;;;4.20;99.90;;;;;;4989979;28;20379;-77
2020/12/25 07:01:45;;;;;;;10.50;0.93;;;4.00;99.90;;;;;;4995932;28;20109;-77
2020/12/25 07:04:28;;;;;;;2.42;0.82;;;4.00;99.90;;;;;;5004939;28;20077;-78
2020/12/25 07:07:01;;;;;;;9.00;1.38;;;4.00;99.90;;;;;;5007636;28;20049;-78
2020/12/25 07:09:36;;;;;;;9.23;1.00;;;3.90;99.90;;;;;;5004881;28;20045;-77
2020/12/25 07:12:35;;;;;;;3.15;0.52;;;3.90;99.90;;;;;;5008664;28;20022;-77
2020/12/25 07:15:01;;;;;;;4.15;1.83;;;3.90;99.90;;;;;;4986405;28;20042;-77
2020/12/25 07:17:27;;;;;;;7.93;1.83;;;3.90;99.90;;;;;;5004770;28;20015;-77
2020/12/25 07:19:53;;;;;;;3.15;0.70;;;3.90;99.90;;;;;;5000990;28;20033;-78
2020/12/25 07:22:20;;;;;;;9.75;1.95;;;3.90;99.90;;;;;;5001835;28;20065;-77
2020/12/25 07:24:46;;;;;;;1.33;0.60;;;3.80;99.90;;;;;;5000532;28;20084;-78
2020/12/25 07:27:16;;;;;;;9.80;1.15;;;3.80;99.90;;;;;;4997193;28;20037;-78
2020/12/25 07:29:43;;;;;;;2.17;0.40;;;3.70;99.90;;;;;;4999767;28;20038;-78
2020/12/25 07:32:11;;;;;;;5.10;0.77;;;3.70;99.90;;;;;;5002766;28;20042;-78
2020/12/25 07:34:38;;;;;;;7.97;1.23;;;3.70;99.90;;;;;;4996884;28;20035;-78
2020/12/25 07:37:04;;;;;;;3.97;0.82;;;3.70;99.90;;;;;;5002561;28;20034;-78
2020/12/25 07:39:30;;;;;;;2.38;1.00;;;3.70;99.90;;;;;;5004219;28;20620;-78
2020/12/25 07:41:56;;;;;;;9.18;0.90;;;3.70;99.90;;;;;;4998663;28;20022;-78
2020/12/25 07:44:23;;;;;;;5.32;1.15;;;3.70;99.90;;;;;;5007608;28;20022;-78
2020/12/25 07:46:49;;;;;;;4.82;1.13;;;3.60;99.90;;;;;;4992981;28;20411;-78
2020/12/25 07:49:16;;;;;;;9.15;1.15;;;3.70;99.90;;;;;;4994722;28;20386;-78
2020/12/25 07:51:42;;;;;;;3.53;1.05;;;3.60;99.90;;;;;;4996565;28;20569;-78
2020/12/25 07:54:08;;;;;;;12.23;1.20;;;3.50;99.90;;;;;;4982021;28;20109;-78
2020/12/25 07:56:35;;;;;;;7.50;1.40;;;3.50;99.90;;;;;;4982545;28;20031;-78
2020/12/25 07:59:02;;;;;;;10.10;1.17;;;3.40;99.90;;;;;;4982312;28;20029;-78
2020/12/25 08:01:30;;;;;;;10.23;1.08;;;3.50;99.90;;;;;;4983648;28;20285;-78
2020/12/25 08:04:00;;;;;;;4.05;1.23;;;3.50;99.90;;;;;;4984306;28;20019;-78
2020/12/25 08:06:28;;;;;;;7.05;1.48;;;3.50;99.90;;;;;;4985147;28;20034;-78
2020/12/25 08:09:03;;;;;;;5.88;2.10;;;3.50;99.90;;;;;;4985497;28;20027;-78
2020/12/25 08:11:30;;;;;;;13.40;2.22;;;3.60;99.90;;;;;;4987302;28;20038;-78
2020/12/25 08:14:00;;;;;;;1.48;0.98;;;3.60;99.90;;;;;;4986604;28;20425;-77
2020/12/25 08:16:26;;;;;;;13.27;1.70;;;3.60;99.90;;;;;;4986960;28;20030;-78
2020/12/25 08:18:51;;;;;;;10.23;2.03;;;3.60;99.90;;;;;;4982968;28;20138;-77
2020/12/25 08:21:17;;;;;;;9.05;1.55;;;3.70;99.90;;;;;;4989986;28;20062;-77
2020/12/25 08:23:44;;;;;;;6.53;1.33;;;3.70;99.90;;;;;;4994175;28;20028;-77
2020/12/25 08:26:09;;;;;;;5.22;1.25;;;3.60;99.90;;;;;;4990857;28;20023;-78
2020/12/25 08:28:35;;;;;;;8.02;2.50;;;3.70;99.90;;;;;;4996068;28;20026;-77
2020/12/25 08:31:14;;;;;;;7.07;1.35;;;3.80;99.90;;;;;;5004319;28;20018;-78
2020/12/25 08:33:40;;;;;;;12.32;1.73;;;3.80;99.90;;;;;;5007724;28;20056;-77
2020/12/25 08:36:10;;;;;;;10.45;1.30;;;3.80;99.90;;;;;;5012216;28;20042;-77
2020/12/25 08:38:43;;;;;;;5.90;1.35;;;3.80;99.90;;;;;;5012502;28;20049;-77
2020/12/25 08:41:09;;;;;;;5.18;1.05;;;3.80;99.90;;;;;;5012304;28;20041;-78
2020/12/25 08:43:35;;;;;;;4.28;1.08;;;3.90;99.90;;;;;;5006736;28;20026;-77
2020/12/25 08:46:03;;;;;;;9.23;1.40;;;4.00;99.90;;;;;;4993625;28;20086;-78
2020/12/25 08:48:33;;;;;;;7.55;1.33;;;4.10;99.90;;;;;;4994957;28;20029;-78
2020/12/25 08:51:15;;;;;;;7.43;1.83;;;4.20;99.90;;;;;;4996719;28;20033;-77
2020/12/25 08:53:51;;;;;;;5.75;0.90;;;4.30;99.90;;;;;;4993413;28;20018;-77
2020/12/25 08:56:20;;;;;;;16.35;2.50;;;4.40;99.90;;;;;;4994130;28;20052;-77
2020/12/25 08:59:01;;;;;;;12.88;1.23;;;4.50;99.90;;;;;;4992576;28;20026;-77
2020/12/25 09:01:28;;;;;;;8.50;1.13;;;4.50;99.90;;;;;;4992229;28;20028;-77
2020/12/25 09:03:56;;;;;;;6.95;1.30;;;4.50;99.90;;;;;;4989805;28;20019;-78
2020/12/25 09:06:22;;;;;;;11.63;1.48;;;4.50;99.90;;;;;;4986634;28;20027;-77
2020/12/25 09:08:48;;;;;;;6.00;0.88;;;4.60;99.90;;;;;;4990063;28;20138;-77
2020/12/25 09:11:19;;;;;;;5.88;1.90;;;4.60;99.90;;;;;;4987797;28;20105;-78
2020/12/25 09:13:45;;;;;;;8.48;1.02;;;4.60;99.90;;;;;;4976258;28;20037;-77
2020/12/25 09:16:11;;;;;;;8.32;1.02;;;4.70;99.90;;;;;;4972818;28;20042;-78
2020/12/25 09:18:38;;;;;;;8.80;1.08;;;4.70;99.90;;;;;;4984506;28;20475;-77
2020/12/25 09:21:07;;;;;;;1.42;0.82;;;4.80;99.90;;;;;;4992781;28;20050;-77
2020/12/25 09:23:32;;;;;;;3.97;1.35;;;4.80;99.90;;;;;;4992601;28;20023;-77
2020/12/25 09:25:58;;;;;;;7.32;0.75;;;4.90;99.90;;;;;;4985936;28;20074;-77
2020/12/25 09:28:24;;;;;;;10.20;1.20;;;4.90;99.90;;;;;;4994601;28;20360;-77
2020/12/25 09:30:54;;;;;;;6.72;1.15;;;5.00;99.90;;;;;;4993479;28;20112;-78
2020/12/25 09:33:20;;;;;;;7.63;1.48;;;5.00;99.90;;;;;;4982996;28;20092;-77
2020/12/25 09:35:46;;;;;;;9.52;1.30;;;5.00;99.90;;;;;;4991438;28;20070;-78
2020/12/25 09:38:12;;;;;;;12.18;1.70;;;5.00;99.90;;;;;;4988052;28;20022;-78
2020/12/25 09:40:38;;;;;;;13.68;1.40;;;5.00;99.90;;;;;;4988909;28;20034;-77
2020/12/25 09:43:04;;;;;;;5.50;1.40;;;5.00;99.90;;;;;;4989509;28;20404;-77
2020/12/25 09:45:30;;;;;;;6.57;0.75;;;5.10;99.90;;;;;;4987946;28;20126;-78
2020/12/25 09:47:55;;;;;;;8.77;2.15;;;5.10;99.90;;;;;;4981558;28;20035;-77
2020/12/25 09:50:21;;;;;;;7.25;2.28;;;5.10;99.90;;;;;;4980392;28;20026;-77
2020/12/25 09:52:46;;;;;;;19.15;2.10;;;5.10;99.90;;;;;;4989527;28;20094;-77
2020/12/25 09:55:12;;;;;;;6.68;1.58;;;5.00;99.90;;;;;;4990736;28;20041;-78
2020/12/25 09:57:37;;;;;;;3.97;1.27;;;5.00;99.90;;;;;;4994711;28;20383;-77
2020/12/25 10:00:08;;;;;;;7.15;2.15;;;5.10;99.90;;;;;;4998321;28;20045;-77
2020/12/25 10:02:34;;;;;;;10.43;1.30;;;5.10;99.90;;;;;;5005464;28;20030;-77
2020/12/25 10:04:59;;;;;;;4.78;1.40;;;5.20;99.90;;;;;;5004760;28;20057;-77
2020/12/25 10:07:25;;;;;;;4.75;0.90;;;5.20;99.90;;;;;;5008470;28;20101;-78
2020/12/25 10:09:50;;;;;;;7.53;1.30;;;5.20;99.90;;;;;;5011489;28;20038;-78
2020/12/25 10:12:16;;;;;;;10.45;1.40;;;5.20;99.90;;;;;;5014704;28;20026;-78
2020/12/25 10:14:41;;;;;;;14.90;1.63;;;5.30;99.90;;;;;;5004831;28;20052;-79
2020/12/25 10:17:07;;;;;;;5.63;1.30;;;5.30;99.90;;;;;;4992273;28;20030;-82
2020/12/25 10:19:34;;;;;;;2.10;0.88;;;5.40;99.90;;;;;;4994139;28;20053;-81
2020/12/25 10:21:59;;;;;;;6.68;1.42;;;5.40;99.90;;;;;;4995700;28;20026;-81
2020/12/25 10:24:25;;;;;;;5.90;1.20;;;5.50;99.90;;;;;;4996466;28;20398;-84
2020/12/25 10:26:51;;;;;;;6.75;1.40;;;5.60;99.90;;;;;;4991315;28;20030;-77
2020/12/25 10:29:16;;;;;;;4.82;1.02;;;5.70;99.90;;;;;;4990850;28;20030;-78
2020/12/25 10:31:49;;;;;;;9.13;1.10;;;5.70;99.90;;;;;;4992858;28;20145;-78
2020/12/25 10:34:15;;;;;;;4.03;0.80;;;5.80;99.90;;;;;;4983064;28;20462;-78
2020/12/25 10:36:42;;;;;;;7.40;1.50;;;5.80;99.90;;;;;;4983476;28;20034;-78
2020/12/25 10:39:09;;;;;;;15.80;1.20;;;5.80;99.90;;;;;;4990020;28;20494;-77
2020/12/25 10:41:35;;;;;;;11.65;3.35;;;6.00;99.90;;;;;;4992366;28;20406;-78
2020/12/25 10:44:01;;;;;;;3.90;1.73;;;6.00;99.90;;;;;;4992030;28;20114;-78
2020/12/25 10:46:27;;;;;;;11.90;1.80;;;6.10;99.90;;;;;;4992523;28;20037;-78
2020/12/25 10:48:52;;;;;;;14.75;2.30;;;6.20;99.90;;;;;;4998567;28;20509;-78
2020/12/25 10:51:19;;;;;;;8.85;1.48;;;6.30;99.90;;;;;;4998964;28;20418;-78
2020/12/25 10:53:45;;;;;;;3.95;1.00;;;6.30;99.90;;;;;;4995166;28;20034;-78
2020/12/25 10:56:22;;;;;;;10.23;1.42;;;6.40;99.90;;;;;;5000278;28;20030;-77
2020/12/25 10:58:48;;;;;;;8.27;1.50;;;6.30;99.90;;;;;;4998848;28;20061;-77
2020/12/25 11:01:25;;;;;;;6.22;1.17;;;6.40;99.90;;;;;;4999604;28;20022;-77
2020/12/25 11:03:51;;;;;;;11.70;1.20;;;6.40;99.90;;;;;;4987570;28;20054;-77
2020/12/25 11:06:19;;;;;;;6.70;1.73;;;6.50;99.90;;;;;;4995113;28;20054;-77
2020/12/25 11:08:48;;;;;;;13.95;2.22;;;6.40;99.90;;;;;;4994484;28;20593;-77
2020/12/25 11:11:43;;;;;;;11.10;2.38;;;6.40;99.90;;;;;;4999406;28;20072;-77
2020/12/25 11:14:09;;;;;;;14.48;1.10;;;6.60;99.90;;;;;;4980588;28;20097;-77
2020/12/25 11:16:37;;;;;;;11.13;1.27;;;6.60;99.90;;;;;;4993448;28;20027;-76
2020/12/25 11:19:05;;;;;;;3.33;1.15;;;6.70;99.90;;;;;;4980960;28;20034;-77
2020/12/25 11:21:31;;;;;;;7.32;2.30;;;6.80;99.90;;;;;;4989707;28;20387;-76
2020/12/25 11:23:59;;;;;;;6.75;1.02;;;6.80;99.90;;;;;;4998415;28;20023;-76
2020/12/25 11:26:27;;;;;;;12.98;1.20;;;6.80;99.90;;;;;;4998693;28;20093;-76
2020/12/25 11:28:55;;;;;;;4.45;1.13;;;6.70;99.90;;;;;;4998939;28;20030;-77
2020/12/25 11:31:21;;;;;;;4.10;1.10;;;6.70;99.90;;;;;;4986535;28;20027;-76
2020/12/25 11:33:48;;;;;;;7.40;0.98;;;6.80;99.90;;;;;;4993074;28;20085;-77
2020/12/25 11:36:24;;;;;;;12.55;1.70;;;6.90;99.90;;;;;;5003146;28;20030;-76
2020/12/25 11:38:50;;;;;;;5.32;0.73;;;6.80;99.90;;;;;;4996234;28;20022;-76
2020/12/25 11:41:17;;;;;;;8.02;2.00;;;6.80;99.90;;;;;;5011842;28;20126;-76
2020/12/25 11:43:44;;;;;;;5.80;1.02;;;6.80;99.90;;;;;;5019709;28;20033;-78
2020/12/25 11:46:10;;;;;;;6.88;0.98;;;6.90;99.90;;;;;;5016782;28;20080;-76
2020/12/25 11:48:37;;;;;;;1.95;0.80;;;7.00;99.90;;;;;;5014519;28;20026;-76
2020/12/25 11:51:06;;;;;;;7.30;1.00;;;7.10;99.90;;;;;;5004561;28;20023;-77
2020/12/25 11:53:32;;;;;;;1.83;0.57;;;7.10;99.90;;;;;;5003223;28;20033;-76
2020/12/25 11:55:58;;;;;;;4.43;1.02;;;6.90;99.90;;;;;;4996840;28;20034;-75
2020/12/25 11:58:24;;;;;;;3.80;0.57;;;6.90;99.90;;;;;;4992193;28;20132;-75
2020/12/25 12:00:50;;;;;;;8.38;0.82;;;6.90;99.90;;;;;;4991353;28;20403;-76
2020/12/25 12:03:16;;;;;;;7.55;0.90;;;7.00;99.90;;;;;;4993288;28;20038;-75
2020/12/25 12:05:42;;;;;;;2.33;0.60;;;6.90;99.90;;;;;;4995288;28;20030;-76
2020/12/25 12:08:10;;;;;;;8.23;0.85;;;7.10;99.90;;;;;;4993752;28;20042;-75
2020/12/25 12:10:35;;;;;;;2.83;0.63;;;7.20;99.90;;;;;;4997211;28;20084;-76
2020/12/25 12:13:02;;;;;;;10.52;1.13;;;7.30;99.90;;;;;;4993130;28;20278;-76
2020/12/25 12:15:28;;;;;;;6.97;1.48;;;7.30;99.90;;;;;;4995784;28;20033;-76
2020/12/25 12:17:53;;;;;;;6.47;0.80;;;7.20;99.90;;;;;;4985405;28;20026;-76
2020/12/25 12:20:19;;;;;;;6.55;0.60;;;7.20;99.90;;;;;;4992543;28;20459;-76
2020/12/25 12:22:45;;;;;;;6.53;0.77;;;7.10;99.90;;;;;;4984968;28;20033;-76
2020/12/25 12:25:10;;;;;;;8.30;1.45;;;7.10;99.90;;;;;;4994946;28;20101;-75
2020/12/25 12:27:36;;;;;;;5.85;0.88;;;7.10;99.90;;;;;;4980609;28;20034;-76
2020/12/25 12:30:05;;;;;;;3.13;1.05;;;6.90;99.90;;;;;;4982060;28;20081;-76
2020/12/25 12:32:31;;;;;;;4.75;0.90;;;6.80;99.90;;;;;;4995049;28;20034;-77
2020/12/25 12:34:57;;;;;;;3.67;0.80;;;6.90;99.90;;;;;;4994493;28;20042;-76
2020/12/25 12:37:23;;;;;;;5.00;0.90;;;6.70;99.90;;;;;;4992066;28;20030;-78
2020/12/25 12:39:48;;;;;;;7.20;0.77;;;6.60;99.90;;;;;;4990639;28;20057;-77
2020/12/25 12:42:14;;;;;;;7.60;0.77;;;6.70;99.90;;;;;;4993300;28;20046;-76
2020/12/25 12:44:39;;;;;;;9.63;1.00;;;6.90;99.90;;;;;;4986630;28;20054;-76
2020/12/25 12:47:05;;;;;;;4.50;0.82;;;6.90;99.90;;;;;;4992047;28;20031;-77
2020/12/25 12:49:31;;;;;;;5.75;1.30;;;6.90;99.90;;;;;;4984039;28;20026;-76
2020/12/25 12:51:56;;;;;;;5.38;1.10;;;6.90;99.90;;;;;;4992552;28;20050;-77
2020/12/25 12:54:22;;;;;;;8.48;1.05;;;6.90;99.90;;;;;;4992317;28;20498;-77